sensor_id;sensor_type;location;lat;lon;timestamp;P1;durP1;ratioP1;P2;durP2;ratioP2
44995;SDS011;30729;49.486;10.792;2022-08-03T00:01:39;5.53;;;3.10;;
44995;SDS011;30729;49.486;10.792;2022-08-03T00:04:06;6.53;;;3.20;;
44995;SDS011;30729;49.486;10.792;2022-08-03T00:06:33;4.90;;;2.90;;
44995;SDS011;30729;49.486;10.792;2022-08-03T00:08:59;5.40;;;3.30;;
44995;SDS011;30729;49.486;10.792;2022-08-03T00:11:24;5.22;;;3.15;;
44995;SDS011;30729;49.486;10.792;2022-08-03T00:13:50;8.05;;;3.05;;
44995;SDS011;30729;49.486;10.792;2022-08-03T00:16:16;6.50;;;4.25;;
44995;SDS011;30729;49.486;10.792;2022-08-03T00:18:42;5.32;;;2.97;;
44995;SDS011;30729;49.486;10.792;2022-08-03T00:21:07;5.88;;;3.28;;
44995;SDS011;30729;49.486;10.792;2022-08-03T00:23:33;5.57;;;3.17;;
44995;SDS011;30729;49.486;10.792;2022-08-03T00:25:59;6.00;;;3.15;;
44995;SDS011;30729;49.486;10.792;2022-08-03T00:28:24;6.13;;;3.10;;
44995;SDS011;30729;49.486;10.792;2022-08-03T00:30:50;5.90;;;2.90;;
44995;SDS011;30729;49.486;10.792;2022-08-03T00:33:15;5.07;;;3.15;;
44995;SDS011;30729;49.486;10.792;2022-08-03T00:35:41;4.85;;;3.30;;
44995;SDS011;30729;49.486;10.792;2022-08-03T00:38:06;9.23;;;4.00;;
44995;SDS011;30729;49.486;10.792;2022-08-03T00:40:32;8.05;;;3.30;;
44995;SDS011;30729;49.486;10.792;2022-08-03T00:42:59;6.13;;;2.85;;
44995;SDS011;30729;49.486;10.792;2022-08-03T00:45:29;5.85;;;3.15;;
44995;SDS011;30729;49.486;10.792;2022-08-03T00:47:56;6.53;;;3.80;;
44995;SDS011;30729;49.486;10.792;2022-08-03T00:50:23;5.07;;;3.10;;
44995;SDS011;30729;49.486;10.792;2022-08-03T00:52:51;8.70;;;3.08;;
44995;SDS011;30729;49.486;10.792;2022-08-03T00:55:17;6.40;;;3.08;;
44995;SDS011;30729;49.486;10.792;2022-08-03T00:57:43;5.30;;;3.10;;
44995;SDS011;30729;49.486;10.792;2022-08-03T01:00:10;5.90;;;3.22;;
44995;SDS011;30729;49.486;10.792;2022-08-03T01:02:37;7.57;;;3.50;;
44995;SDS011;30729;49.486;10.792;2022-08-03T01:05:03;5.18;;;3.15;;
44995;SDS011;30729;49.486;10.792;2022-08-03T01:07:45;5.90;;;3.30;;
44995;SDS011;30729;49.486;10.792;2022-08-03T01:10:24;6.97;;;3.25;;
44995;SDS011;30729;49.486;10.792;2022-08-03T01:15:41;6.10;;;3.00;;
44995;SDS011;30729;49.486;10.792;2022-08-03T01:18:14;5.03;;;3.08;;
44995;SDS011;30729;49.486;10.792;2022-08-03T01:20:46;8.00;;;3.38;;
44995;SDS011;30729;49.486;10.792;2022-08-03T01:31:25;7.10;;;3.70;;
44995;SDS011;30729;49.486;10.792;2022-08-03T01:33:58;5.82;;;3.22;;
44995;SDS011;30729;49.486;10.792;2022-08-03T01:36:31;5.78;;;3.67;;
44995;SDS011;30729;49.486;10.792;2022-08-03T01:39:02;6.20;;;3.23;;
44995;SDS011;30729;49.486;10.792;2022-08-03T01:41:33;4.90;;;2.97;;
44995;SDS011;30729;49.486;10.792;2022-08-03T01:44:04;5.55;;;3.50;;
44995;SDS011;30729;49.486;10.792;2022-08-03T01:46:32;6.05;;;3.42;;
44995;SDS011;30729;49.486;10.792;2022-08-03T01:48:58;5.68;;;3.25;;
44995;SDS011;30729;49.486;10.792;2022-08-03T01:51:26;5.38;;;3.38;;
44995;SDS011;30729;49.486;10.792;2022-08-03T01:53:54;6.90;;;3.78;;
44995;SDS011;30729;49.486;10.792;2022-08-03T01:56:23;5.70;;;3.55;;
44995;SDS011;30729;49.486;10.792;2022-08-03T01:58:50;7.10;;;3.38;;
44995;SDS011;30729;49.486;10.792;2022-08-03T02:01:18;8.15;;;3.60;;
44995;SDS011;30729;49.486;10.792;2022-08-03T02:03:45;5.70;;;3.22;;
44995;SDS011;30729;49.486;10.792;2022-08-03T02:06:13;8.02;;;3.83;;
44995;SDS011;30729;49.486;10.792;2022-08-03T02:08:42;6.47;;;3.38;;
44995;SDS011;30729;49.486;10.792;2022-08-03T02:11:09;5.95;;;3.67;;
44995;SDS011;30729;49.486;10.792;2022-08-03T02:13:35;4.72;;;3.20;;
44995;SDS011;30729;49.486;10.792;2022-08-03T02:16:03;7.28;;;3.28;;
44995;SDS011;30729;49.486;10.792;2022-08-03T02:18:29;5.35;;;3.50;;
44995;SDS011;30729;49.486;10.792;2022-08-03T02:20:56;6.85;;;3.50;;
44995;SDS011;30729;49.486;10.792;2022-08-03T02:23:28;6.38;;;3.20;;
44995;SDS011;30729;49.486;10.792;2022-08-03T02:25:56;7.07;;;3.60;;
44995;SDS011;30729;49.486;10.792;2022-08-03T02:28:31;7.50;;;3.75;;
44995;SDS011;30729;49.486;10.792;2022-08-03T02:31:02;6.63;;;3.45;;
44995;SDS011;30729;49.486;10.792;2022-08-03T02:33:35;8.05;;;4.05;;
44995;SDS011;30729;49.486;10.792;2022-08-03T02:36:03;6.30;;;3.55;;
44995;SDS011;30729;49.486;10.792;2022-08-03T02:38:31;6.50;;;3.95;;
44995;SDS011;30729;49.486;10.792;2022-08-03T02:40:59;5.90;;;3.70;;
44995;SDS011;30729;49.486;10.792;2022-08-03T02:43:27;5.28;;;3.47;;
44995;SDS011;30729;49.486;10.792;2022-08-03T02:45:55;6.63;;;3.78;;
44995;SDS011;30729;49.486;10.792;2022-08-03T02:48:22;7.28;;;3.80;;
44995;SDS011;30729;49.486;10.792;2022-08-03T02:50:51;5.85;;;3.67;;
44995;SDS011;30729;49.486;10.792;2022-08-03T02:53:18;7.70;;;4.30;;
44995;SDS011;30729;49.486;10.792;2022-08-03T02:55:46;6.68;;;3.90;;
44995;SDS011;30729;49.486;10.792;2022-08-03T02:58:13;6.32;;;3.78;;
44995;SDS011;30729;49.486;10.792;2022-08-03T03:00:41;5.72;;;3.70;;
44995;SDS011;30729;49.486;10.792;2022-08-03T03:03:09;6.25;;;4.05;;
44995;SDS011;30729;49.486;10.792;2022-08-03T03:05:35;6.03;;;3.95;;
44995;SDS011;30729;49.486;10.792;2022-08-03T03:08:01;6.88;;;3.42;;
44995;SDS011;30729;49.486;10.792;2022-08-03T03:10:27;8.52;;;4.35;;
44995;SDS011;30729;49.486;10.792;2022-08-03T03:12:56;6.55;;;4.40;;
44995;SDS011;30729;49.486;10.792;2022-08-03T03:15:23;8.07;;;4.07;;
44995;SDS011;30729;49.486;10.792;2022-08-03T03:17:50;6.45;;;3.85;;
44995;SDS011;30729;49.486;10.792;2022-08-03T03:20:17;7.70;;;4.15;;
44995;SDS011;30729;49.486;10.792;2022-08-03T03:22:45;7.20;;;4.15;;
44995;SDS011;30729;49.486;10.792;2022-08-03T03:25:13;8.63;;;4.43;;
44995;SDS011;30729;49.486;10.792;2022-08-03T03:27:39;6.75;;;4.10;;
44995;SDS011;30729;49.486;10.792;2022-08-03T03:30:04;7.88;;;4.50;;
44995;SDS011;30729;49.486;10.792;2022-08-03T03:32:31;6.00;;;3.80;;
44995;SDS011;30729;49.486;10.792;2022-08-03T03:34:57;8.40;;;4.65;;
44995;SDS011;30729;49.486;10.792;2022-08-03T03:37:23;6.68;;;4.20;;
44995;SDS011;30729;49.486;10.792;2022-08-03T03:39:50;6.90;;;4.43;;
44995;SDS011;30729;49.486;10.792;2022-08-03T03:42:17;6.97;;;4.45;;
44995;SDS011;30729;49.486;10.792;2022-08-03T03:44:43;8.40;;;5.10;;
44995;SDS011;30729;49.486;10.792;2022-08-03T03:47:09;8.75;;;4.47;;
44995;SDS011;30729;49.486;10.792;2022-08-03T03:49:34;5.72;;;4.18;;
44995;SDS011;30729;49.486;10.792;2022-08-03T03:52:00;8.98;;;4.47;;
44995;SDS011;30729;49.486;10.792;2022-08-03T03:54:25;6.97;;;4.20;;
44995;SDS011;30729;49.486;10.792;2022-08-03T03:56:51;6.50;;;4.05;;
44995;SDS011;30729;49.486;10.792;2022-08-03T03:59:16;5.85;;;3.92;;
44995;SDS011;30729;49.486;10.792;2022-08-03T04:01:42;9.68;;;5.00;;
44995;SDS011;30729;49.486;10.792;2022-08-03T04:04:07;6.43;;;4.18;;
44995;SDS011;30729;49.486;10.792;2022-08-03T04:06:51;7.68;;;4.03;;
44995;SDS011;30729;49.486;10.792;2022-08-03T04:09:35;7.95;;;4.20;;
44995;SDS011;30729;49.486;10.792;2022-08-03T04:12:21;7.10;;;4.10;;
44995;SDS011;30729;49.486;10.792;2022-08-03T04:14:48;8.75;;;3.67;;
44995;SDS011;30729;49.486;10.792;2022-08-03T04:17:16;8.07;;;3.95;;
44995;SDS011;30729;49.486;10.792;2022-08-03T04:19:46;6.10;;;3.80;;
44995;SDS011;30729;49.486;10.792;2022-08-03T04:22:16;8.40;;;3.80;;
44995;SDS011;30729;49.486;10.792;2022-08-03T04:24:45;9.75;;;3.97;;
44995;SDS011;30729;49.486;10.792;2022-08-03T04:27:15;8.18;;;4.80;;
44995;SDS011;30729;49.486;10.792;2022-08-03T04:29:45;7.40;;;4.25;;
44995;SDS011;30729;49.486;10.792;2022-08-03T04:32:13;8.00;;;3.90;;
44995;SDS011;30729;49.486;10.792;2022-08-03T04:34:39;7.00;;;4.22;;
44995;SDS011;30729;49.486;10.792;2022-08-03T04:37:08;7.47;;;4.50;;
44995;SDS011;30729;49.486;10.792;2022-08-03T04:39:36;6.78;;;4.28;;
44995;SDS011;30729;49.486;10.792;2022-08-03T04:42:03;8.07;;;5.07;;
44995;SDS011;30729;49.486;10.792;2022-08-03T04:44:34;6.82;;;4.63;;
44995;SDS011;30729;49.486;10.792;2022-08-03T04:47:01;6.70;;;4.40;;
44995;SDS011;30729;49.486;10.792;2022-08-03T04:49:27;7.20;;;4.95;;
44995;SDS011;30729;49.486;10.792;2022-08-03T04:51:54;8.13;;;4.68;;
44995;SDS011;30729;49.486;10.792;2022-08-03T04:54:20;7.30;;;5.18;;
44995;SDS011;30729;49.486;10.792;2022-08-03T04:56:45;6.85;;;4.22;;
44995;SDS011;30729;49.486;10.792;2022-08-03T04:59:11;9.73;;;4.20;;
44995;SDS011;30729;49.486;10.792;2022-08-03T05:01:38;7.95;;;3.60;;
44995;SDS011;30729;49.486;10.792;2022-08-03T05:04:04;7.20;;;4.43;;
44995;SDS011;30729;49.486;10.792;2022-08-03T05:06:29;7.38;;;4.05;;
44995;SDS011;30729;49.486;10.792;2022-08-03T05:08:55;6.93;;;4.30;;
44995;SDS011;30729;49.486;10.792;2022-08-03T05:11:20;7.30;;;4.20;;
44995;SDS011;30729;49.486;10.792;2022-08-03T05:13:46;8.93;;;4.72;;
44995;SDS011;30729;49.486;10.792;2022-08-03T05:16:12;7.63;;;4.72;;
44995;SDS011;30729;49.486;10.792;2022-08-03T05:18:38;7.63;;;4.65;;
44995;SDS011;30729;49.486;10.792;2022-08-03T05:21:04;9.10;;;4.47;;
44995;SDS011;30729;49.486;10.792;2022-08-03T05:23:30;8.23;;;4.00;;
44995;SDS011;30729;49.486;10.792;2022-08-03T05:25:55;7.38;;;4.55;;
44995;SDS011;30729;49.486;10.792;2022-08-03T05:28:21;6.00;;;4.03;;
44995;SDS011;30729;49.486;10.792;2022-08-03T05:30:46;6.75;;;4.53;;
44995;SDS011;30729;49.486;10.792;2022-08-03T05:33:11;7.00;;;4.68;;
44995;SDS011;30729;49.486;10.792;2022-08-03T05:35:37;8.35;;;4.28;;
44995;SDS011;30729;49.486;10.792;2022-08-03T05:38:03;7.00;;;4.30;;
44995;SDS011;30729;49.486;10.792;2022-08-03T05:40:30;7.50;;;4.82;;
44995;SDS011;30729;49.486;10.792;2022-08-03T05:42:56;8.27;;;4.22;;
44995;SDS011;30729;49.486;10.792;2022-08-03T05:45:22;8.20;;;4.95;;
44995;SDS011;30729;49.486;10.792;2022-08-03T05:47:48;10.75;;;4.80;;
44995;SDS011;30729;49.486;10.792;2022-08-03T05:50:15;14.15;;;5.60;;
44995;SDS011;30729;49.486;10.792;2022-08-03T05:52:41;8.45;;;4.10;;
44995;SDS011;30729;49.486;10.792;2022-08-03T05:55:07;19.38;;;5.93;;
44995;SDS011;30729;49.486;10.792;2022-08-03T05:57:33;8.85;;;5.72;;
44995;SDS011;30729;49.486;10.792;2022-08-03T06:00:00;8.63;;;5.55;;
44995;SDS011;30729;49.486;10.792;2022-08-03T06:02:29;14.48;;;5.88;;
44995;SDS011;30729;49.486;10.792;2022-08-03T06:04:54;13.73;;;5.38;;
44995;SDS011;30729;49.486;10.792;2022-08-03T06:07:20;9.95;;;5.10;;
44995;SDS011;30729;49.486;10.792;2022-08-03T06:09:45;8.80;;;5.22;;
44995;SDS011;30729;49.486;10.792;2022-08-03T06:12:11;11.10;;;5.20;;
44995;SDS011;30729;49.486;10.792;2022-08-03T06:14:37;9.55;;;5.10;;
44995;SDS011;30729;49.486;10.792;2022-08-03T06:17:02;16.17;;;5.70;;
44995;SDS011;30729;49.486;10.792;2022-08-03T06:19:28;16.63;;;5.60;;
44995;SDS011;30729;49.486;10.792;2022-08-03T06:21:53;15.57;;;5.05;;
44995;SDS011;30729;49.486;10.792;2022-08-03T06:24:18;16.63;;;5.93;;
44995;SDS011;30729;49.486;10.792;2022-08-03T06:26:44;13.32;;;5.10;;
44995;SDS011;30729;49.486;10.792;2022-08-03T06:29:09;15.40;;;5.93;;
44995;SDS011;30729;49.486;10.792;2022-08-03T06:31:35;10.45;;;5.35;;
44995;SDS011;30729;49.486;10.792;2022-08-03T06:34:01;8.27;;;4.85;;
44995;SDS011;30729;49.486;10.792;2022-08-03T06:36:28;12.15;;;5.45;;
44995;SDS011;30729;49.486;10.792;2022-08-03T06:38:55;11.35;;;5.32;;
44995;SDS011;30729;49.486;10.792;2022-08-03T06:41:22;9.82;;;5.38;;
44995;SDS011;30729;49.486;10.792;2022-08-03T06:43:47;10.88;;;5.03;;
44995;SDS011;30729;49.486;10.792;2022-08-03T06:46:13;8.23;;;5.18;;
44995;SDS011;30729;49.486;10.792;2022-08-03T06:48:38;9.15;;;5.50;;
44995;SDS011;30729;49.486;10.792;2022-08-03T06:51:03;9.82;;;5.13;;
44995;SDS011;30729;49.486;10.792;2022-08-03T06:53:28;8.85;;;4.90;;
44995;SDS011;30729;49.486;10.792;2022-08-03T06:55:54;9.32;;;4.63;;
44995;SDS011;30729;49.486;10.792;2022-08-03T06:58:19;9.15;;;4.47;;
44995;SDS011;30729;49.486;10.792;2022-08-03T07:00:45;7.63;;;4.47;;
44995;SDS011;30729;49.486;10.792;2022-08-03T07:03:10;9.02;;;4.75;;
44995;SDS011;30729;49.486;10.792;2022-08-03T07:05:35;8.85;;;5.07;;
44995;SDS011;30729;49.486;10.792;2022-08-03T07:08:01;9.10;;;4.63;;
44995;SDS011;30729;49.486;10.792;2022-08-03T07:10:27;8.77;;;4.45;;
44995;SDS011;30729;49.486;10.792;2022-08-03T07:12:52;8.15;;;3.42;;
44995;SDS011;30729;49.486;10.792;2022-08-03T07:15:18;6.53;;;3.80;;
44995;SDS011;30729;49.486;10.792;2022-08-03T07:17:43;7.45;;;3.55;;
44995;SDS011;30729;49.486;10.792;2022-08-03T07:20:09;7.72;;;3.78;;
44995;SDS011;30729;49.486;10.792;2022-08-03T07:22:35;5.78;;;3.63;;
44995;SDS011;30729;49.486;10.792;2022-08-03T07:25:00;7.65;;;3.83;;
44995;SDS011;30729;49.486;10.792;2022-08-03T07:27:26;6.80;;;3.50;;
44995;SDS011;30729;49.486;10.792;2022-08-03T07:29:53;6.13;;;3.95;;
44995;SDS011;30729;49.486;10.792;2022-08-03T07:32:19;6.18;;;3.58;;
44995;SDS011;30729;49.486;10.792;2022-08-03T07:34:44;7.78;;;3.70;;
44995;SDS011;30729;49.486;10.792;2022-08-03T07:37:10;7.80;;;3.67;;
44995;SDS011;30729;49.486;10.792;2022-08-03T07:39:35;5.57;;;3.78;;
44995;SDS011;30729;49.486;10.792;2022-08-03T07:42:00;6.18;;;3.25;;
44995;SDS011;30729;49.486;10.792;2022-08-03T07:44:26;9.25;;;3.60;;
44995;SDS011;30729;49.486;10.792;2022-08-03T07:46:51;8.00;;;3.55;;
44995;SDS011;30729;49.486;10.792;2022-08-03T07:49:16;5.85;;;3.35;;
44995;SDS011;30729;49.486;10.792;2022-08-03T07:51:42;6.43;;;3.72;;
44995;SDS011;30729;49.486;10.792;2022-08-03T07:54:07;5.78;;;3.42;;
44995;SDS011;30729;49.486;10.792;2022-08-03T07:56:34;6.03;;;2.95;;
44995;SDS011;30729;49.486;10.792;2022-08-03T07:59:00;5.68;;;2.85;;
44995;SDS011;30729;49.486;10.792;2022-08-03T08:01:26;6.38;;;2.88;;
44995;SDS011;30729;49.486;10.792;2022-08-03T08:03:52;7.00;;;2.83;;
44995;SDS011;30729;49.486;10.792;2022-08-03T08:06:18;8.18;;;3.10;;
44995;SDS011;30729;49.486;10.792;2022-08-03T08:08:43;4.53;;;2.75;;
44995;SDS011;30729;49.486;10.792;2022-08-03T08:11:09;6.47;;;3.30;;
44995;SDS011;30729;49.486;10.792;2022-08-03T08:13:34;4.70;;;2.88;;
44995;SDS011;30729;49.486;10.792;2022-08-03T08:16:01;6.47;;;2.88;;
44995;SDS011;30729;49.486;10.792;2022-08-03T08:18:27;5.63;;;2.95;;
44995;SDS011;30729;49.486;10.792;2022-08-03T08:20:53;7.35;;;2.90;;
44995;SDS011;30729;49.486;10.792;2022-08-03T08:23:19;5.85;;;2.75;;
44995;SDS011;30729;49.486;10.792;2022-08-03T08:25:48;9.07;;;3.00;;
44995;SDS011;30729;49.486;10.792;2022-08-03T08:28:18;5.15;;;3.08;;
44995;SDS011;30729;49.486;10.792;2022-08-03T08:30:44;6.15;;;2.75;;
44995;SDS011;30729;49.486;10.792;2022-08-03T08:33:10;6.05;;;2.60;;
44995;SDS011;30729;49.486;10.792;2022-08-03T08:35:35;7.90;;;2.60;;
44995;SDS011;30729;49.486;10.792;2022-08-03T08:38:01;10.02;;;2.70;;
44995;SDS011;30729;49.486;10.792;2022-08-03T08:40:27;5.18;;;2.50;;
44995;SDS011;30729;49.486;10.792;2022-08-03T08:42:52;6.28;;;2.78;;
44995;SDS011;30729;49.486;10.792;2022-08-03T08:45:18;7.07;;;2.80;;
44995;SDS011;30729;49.486;10.792;2022-08-03T08:47:48;7.72;;;2.60;;
44995;SDS011;30729;49.486;10.792;2022-08-03T08:50:18;6.35;;;2.72;;
44995;SDS011;30729;49.486;10.792;2022-08-03T08:52:45;5.72;;;2.97;;
44995;SDS011;30729;49.486;10.792;2022-08-03T08:55:13;7.80;;;2.47;;
44995;SDS011;30729;49.486;10.792;2022-08-03T08:57:46;7.88;;;2.58;;
44995;SDS011;30729;49.486;10.792;2022-08-03T09:00:12;7.30;;;2.40;;
44995;SDS011;30729;49.486;10.792;2022-08-03T09:02:39;7.07;;;2.40;;
44995;SDS011;30729;49.486;10.792;2022-08-03T09:05:11;4.78;;;2.45;;
44995;SDS011;30729;49.486;10.792;2022-08-03T09:07:44;5.45;;;2.67;;
44995;SDS011;30729;49.486;10.792;2022-08-03T09:10:11;6.00;;;2.15;;
44995;SDS011;30729;49.486;10.792;2022-08-03T09:12:40;5.15;;;2.40;;
44995;SDS011;30729;49.486;10.792;2022-08-03T09:15:22;3.25;;;2.00;;
44995;SDS011;30729;49.486;10.792;2022-08-03T09:17:50;6.82;;;2.13;;
44995;SDS011;30729;49.486;10.792;2022-08-03T09:20:18;5.57;;;2.67;;
44995;SDS011;30729;49.486;10.792;2022-08-03T09:25:17;3.90;;;1.87;;
44995;SDS011;30729;49.486;10.792;2022-08-03T09:27:43;4.55;;;2.15;;
44995;SDS011;30729;49.486;10.792;2022-08-03T09:30:13;3.72;;;2.08;;
44995;SDS011;30729;49.486;10.792;2022-08-03T09:32:40;3.78;;;1.92;;
44995;SDS011;30729;49.486;10.792;2022-08-03T09:35:06;5.70;;;2.42;;
44995;SDS011;30729;49.486;10.792;2022-08-03T09:37:32;5.72;;;2.40;;
44995;SDS011;30729;49.486;10.792;2022-08-03T09:39:57;3.50;;;2.28;;
44995;SDS011;30729;49.486;10.792;2022-08-03T09:42:23;3.90;;;2.30;;
44995;SDS011;30729;49.486;10.792;2022-08-03T09:44:49;6.25;;;2.13;;
44995;SDS011;30729;49.486;10.792;2022-08-03T09:50:03;3.25;;;1.83;;
44995;SDS011;30729;49.486;10.792;2022-08-03T09:52:32;3.88;;;1.70;;
44995;SDS011;30729;49.486;10.792;2022-08-03T09:54:59;3.33;;;1.90;;
44995;SDS011;30729;49.486;10.792;2022-08-03T09:57:26;3.58;;;2.30;;
44995;SDS011;30729;49.486;10.792;2022-08-03T09:59:52;5.40;;;1.92;;
44995;SDS011;30729;49.486;10.792;2022-08-03T10:02:25;4.57;;;2.10;;
44995;SDS011;30729;49.486;10.792;2022-08-03T10:04:52;6.22;;;2.28;;
44995;SDS011;30729;49.486;10.792;2022-08-03T10:07:21;3.78;;;2.10;;
44995;SDS011;30729;49.486;10.792;2022-08-03T10:09:56;3.58;;;2.28;;
44995;SDS011;30729;49.486;10.792;2022-08-03T10:12:26;4.68;;;2.30;;
44995;SDS011;30729;49.486;10.792;2022-08-03T10:14:52;6.32;;;2.45;;
44995;SDS011;30729;49.486;10.792;2022-08-03T10:17:19;4.72;;;2.28;;
44995;SDS011;30729;49.486;10.792;2022-08-03T10:19:45;4.65;;;1.95;;
44995;SDS011;30729;49.486;10.792;2022-08-03T10:22:18;5.20;;;1.90;;
44995;SDS011;30729;49.486;10.792;2022-08-03T10:25:02;4.20;;;2.45;;
44995;SDS011;30729;49.486;10.792;2022-08-03T10:27:30;4.97;;;2.30;;
44995;SDS011;30729;49.486;10.792;2022-08-03T10:29:59;5.47;;;1.88;;
44995;SDS011;30729;49.486;10.792;2022-08-03T10:35:12;3.97;;;1.98;;
44995;SDS011;30729;49.486;10.792;2022-08-03T10:37:40;3.50;;;2.30;;
44995;SDS011;30729;49.486;10.792;2022-08-03T10:40:08;4.57;;;2.60;;
44995;SDS011;30729;49.486;10.792;2022-08-03T10:42:37;3.72;;;2.35;;
44995;SDS011;30729;49.486;10.792;2022-08-03T10:45:08;3.55;;;2.30;;
44995;SDS011;30729;49.486;10.792;2022-08-03T10:47:38;4.80;;;2.45;;
44995;SDS011;30729;49.486;10.792;2022-08-03T10:50:04;5.00;;;2.17;;
44995;SDS011;30729;49.486;10.792;2022-08-03T10:52:31;4.40;;;2.35;;
44995;SDS011;30729;49.486;10.792;2022-08-03T10:54:57;4.53;;;2.30;;
44995;SDS011;30729;49.486;10.792;2022-08-03T10:57:50;4.75;;;2.10;;
44995;SDS011;30729;49.486;10.792;2022-08-03T11:00:18;3.70;;;1.98;;
44995;SDS011;30729;49.486;10.792;2022-08-03T11:10:53;4.35;;;1.98;;
44995;SDS011;30729;49.486;10.792;2022-08-03T11:13:21;3.75;;;2.00;;
44995;SDS011;30729;49.486;10.792;2022-08-03T11:15:50;5.53;;;2.40;;
44995;SDS011;30729;49.486;10.792;2022-08-03T11:18:18;5.03;;;2.05;;
44995;SDS011;30729;49.486;10.792;2022-08-03T11:20:44;4.85;;;2.28;;
44995;SDS011;30729;49.486;10.792;2022-08-03T11:23:15;6.60;;;2.30;;
44995;SDS011;30729;49.486;10.792;2022-08-03T11:28:39;2.90;;;1.75;;
44995;SDS011;30729;49.486;10.792;2022-08-03T11:36:30;4.60;;;1.80;;
44995;SDS011;30729;49.486;10.792;2022-08-03T11:39:43;3.28;;;1.95;;
44995;SDS011;30729;49.486;10.792;2022-08-03T11:44:48;3.30;;;1.77;;
44995;SDS011;30729;49.486;10.792;2022-08-03T11:47:15;2.60;;;1.70;;
44995;SDS011;30729;49.486;10.792;2022-08-03T11:49:45;3.67;;;1.70;;
44995;SDS011;30729;49.486;10.792;2022-08-03T11:52:11;3.20;;;1.73;;
44995;SDS011;30729;49.486;10.792;2022-08-03T11:54:37;2.53;;;1.73;;
44995;SDS011;30729;49.486;10.792;2022-08-03T11:57:03;2.03;;;1.52;;
44995;SDS011;30729;49.486;10.792;2022-08-03T11:59:32;5.68;;;1.80;;
44995;SDS011;30729;49.486;10.792;2022-08-03T12:02:31;4.28;;;1.95;;
44995;SDS011;30729;49.486;10.792;2022-08-03T12:04:56;2.47;;;1.60;;
44995;SDS011;30729;49.486;10.792;2022-08-03T12:07:25;4.05;;;1.67;;
44995;SDS011;30729;49.486;10.792;2022-08-03T12:10:08;1.83;;;1.40;;
44995;SDS011;30729;49.486;10.792;2022-08-03T12:12:35;2.15;;;1.48;;
44995;SDS011;30729;49.486;10.792;2022-08-03T12:15:01;4.03;;;1.60;;
44995;SDS011;30729;49.486;10.792;2022-08-03T12:17:36;3.45;;;1.40;;
44995;SDS011;30729;49.486;10.792;2022-08-03T12:20:04;2.13;;;1.40;;
44995;SDS011;30729;49.486;10.792;2022-08-03T12:22:34;4.65;;;1.50;;
44995;SDS011;30729;49.486;10.792;2022-08-03T12:25:04;3.63;;;1.33;;
44995;SDS011;30729;49.486;10.792;2022-08-03T12:27:33;3.78;;;1.15;;
44995;SDS011;30729;49.486;10.792;2022-08-03T12:29:59;3.15;;;1.85;;
44995;SDS011;30729;49.486;10.792;2022-08-03T12:32:26;3.63;;;1.50;;
44995;SDS011;30729;49.486;10.792;2022-08-03T12:34:53;2.47;;;1.25;;
44995;SDS011;30729;49.486;10.792;2022-08-03T12:37:23;3.50;;;1.40;;
44995;SDS011;30729;49.486;10.792;2022-08-03T12:39:50;2.95;;;1.42;;
44995;SDS011;30729;49.486;10.792;2022-08-03T12:42:16;5.07;;;1.73;;
44995;SDS011;30729;49.486;10.792;2022-08-03T12:44:42;2.75;;;1.20;;
44995;SDS011;30729;49.486;10.792;2022-08-03T12:47:07;3.05;;;1.40;;
44995;SDS011;30729;49.486;10.792;2022-08-03T12:49:43;3.00;;;1.40;;
44995;SDS011;30729;49.486;10.792;2022-08-03T12:52:10;3.42;;;1.40;;
44995;SDS011;30729;49.486;10.792;2022-08-03T12:54:35;4.13;;;1.30;;
44995;SDS011;30729;49.486;10.792;2022-08-03T12:57:02;4.70;;;1.73;;
44995;SDS011;30729;49.486;10.792;2022-08-03T12:59:33;3.97;;;1.30;;
44995;SDS011;30729;49.486;10.792;2022-08-03T13:02:00;2.20;;;1.33;;
44995;SDS011;30729;49.486;10.792;2022-08-03T13:04:31;2.53;;;1.33;;
44995;SDS011;30729;49.486;10.792;2022-08-03T13:09:28;2.67;;;1.70;;
44995;SDS011;30729;49.486;10.792;2022-08-03T13:12:05;2.95;;;1.63;;
44995;SDS011;30729;49.486;10.792;2022-08-03T13:14:31;2.17;;;1.50;;
44995;SDS011;30729;49.486;10.792;2022-08-03T13:16:57;1.33;;;1.20;;
44995;SDS011;30729;49.486;10.792;2022-08-03T13:19:22;3.55;;;1.13;;
44995;SDS011;30729;49.486;10.792;2022-08-03T13:21:48;6.13;;;1.48;;
44995;SDS011;30729;49.486;10.792;2022-08-03T13:24:13;2.33;;;1.20;;
44995;SDS011;30729;49.486;10.792;2022-08-03T13:26:39;3.88;;;1.60;;
44995;SDS011;30729;49.486;10.792;2022-08-03T13:29:04;2.20;;;1.40;;
44995;SDS011;30729;49.486;10.792;2022-08-03T13:31:30;2.00;;;1.27;;
44995;SDS011;30729;49.486;10.792;2022-08-03T13:33:55;3.55;;;1.35;;
44995;SDS011;30729;49.486;10.792;2022-08-03T13:36:21;2.10;;;1.40;;
44995;SDS011;30729;49.486;10.792;2022-08-03T13:38:46;2.80;;;1.52;;
44995;SDS011;30729;49.486;10.792;2022-08-03T13:41:11;6.82;;;1.67;;
44995;SDS011;30729;49.486;10.792;2022-08-03T13:43:37;2.17;;;1.20;;
44995;SDS011;30729;49.486;10.792;2022-08-03T13:46:02;3.15;;;1.20;;
44995;SDS011;30729;49.486;10.792;2022-08-03T13:48:27;2.53;;;1.23;;
44995;SDS011;30729;49.486;10.792;2022-08-03T13:50:53;5.28;;;1.40;;
44995;SDS011;30729;49.486;10.792;2022-08-03T13:53:18;3.55;;;1.30;;
44995;SDS011;30729;49.486;10.792;2022-08-03T13:55:44;3.17;;;1.50;;
44995;SDS011;30729;49.486;10.792;2022-08-03T13:58:09;2.22;;;1.40;;
44995;SDS011;30729;49.486;10.792;2022-08-03T14:00:36;3.72;;;1.52;;
44995;SDS011;30729;49.486;10.792;2022-08-03T14:03:02;2.75;;;1.40;;
44995;SDS011;30729;49.486;10.792;2022-08-03T14:05:28;2.15;;;1.20;;
44995;SDS011;30729;49.486;10.792;2022-08-03T14:07:55;2.15;;;1.33;;
44995;SDS011;30729;49.486;10.792;2022-08-03T14:10:21;3.15;;;1.42;;
44995;SDS011;30729;49.486;10.792;2022-08-03T14:12:46;2.50;;;1.30;;
44995;SDS011;30729;49.486;10.792;2022-08-03T14:15:11;2.15;;;1.50;;
44995;SDS011;30729;49.486;10.792;2022-08-03T14:17:37;2.78;;;1.17;;
44995;SDS011;30729;49.486;10.792;2022-08-03T14:20:02;4.18;;;1.30;;
44995;SDS011;30729;49.486;10.792;2022-08-03T14:22:30;5.85;;;1.40;;
44995;SDS011;30729;49.486;10.792;2022-08-03T14:24:55;3.75;;;1.50;;
44995;SDS011;30729;49.486;10.792;2022-08-03T14:27:22;2.67;;;1.40;;
44995;SDS011;30729;49.486;10.792;2022-08-03T14:29:47;2.55;;;1.40;;
44995;SDS011;30729;49.486;10.792;2022-08-03T14:32:12;1.55;;;1.30;;
44995;SDS011;30729;49.486;10.792;2022-08-03T14:34:38;4.55;;;1.40;;
44995;SDS011;30729;49.486;10.792;2022-08-03T14:37:03;2.97;;;1.40;;
44995;SDS011;30729;49.486;10.792;2022-08-03T14:39:29;4.13;;;1.48;;
44995;SDS011;30729;49.486;10.792;2022-08-03T14:41:54;1.88;;;1.30;;
44995;SDS011;30729;49.486;10.792;2022-08-03T14:44:19;5.82;;;1.20;;
44995;SDS011;30729;49.486;10.792;2022-08-03T14:46:45;4.50;;;1.50;;
44995;SDS011;30729;49.486;10.792;2022-08-03T14:49:10;4.88;;;1.30;;
44995;SDS011;30729;49.486;10.792;2022-08-03T14:51:35;1.33;;;1.00;;
44995;SDS011;30729;49.486;10.792;2022-08-03T14:54:01;2.10;;;1.10;;
44995;SDS011;30729;49.486;10.792;2022-08-03T14:56:26;1.52;;;1.08;;
44995;SDS011;30729;49.486;10.792;2022-08-03T14:58:51;4.25;;;1.20;;
44995;SDS011;30729;49.486;10.792;2022-08-03T15:01:16;1.85;;;1.20;;
44995;SDS011;30729;49.486;10.792;2022-08-03T15:03:42;3.70;;;1.40;;
44995;SDS011;30729;49.486;10.792;2022-08-03T15:06:08;3.08;;;1.30;;
44995;SDS011;30729;49.486;10.792;2022-08-03T15:08:33;2.92;;;1.60;;
44995;SDS011;30729;49.486;10.792;2022-08-03T15:10:58;1.70;;;1.20;;
44995;SDS011;30729;49.486;10.792;2022-08-03T15:13:24;2.10;;;1.52;;
44995;SDS011;30729;49.486;10.792;2022-08-03T15:15:50;2.30;;;1.63;;